createdAt,value
2017-10-10T00:02:23.306Z,12.60
2017-10-10T00:04:51.139Z,12.80
2017-10-10T00:07:18.945Z,13.73
2017-10-10T00:09:46.690Z,12.77
2017-10-10T00:12:14.422Z,14.67
2017-10-10T00:14:42.231Z,14.43
2017-10-10T00:17:10.021Z,12.60
2017-10-10T00:19:37.757Z,17.97
2017-10-10T00:22:05.554Z,14.23
2017-10-10T00:24:33.297Z,22.47
2017-10-10T00:27:01.059Z,20.90
2017-10-10T00:29:28.798Z,17.70
2017-10-10T00:31:56.600Z,16.30
2017-10-10T00:34:24.428Z,17.40
2017-10-10T00:36:52.226Z,14.47
2017-10-10T00:39:20.008Z,13.80
2017-10-10T00:41:47.772Z,18.10
2017-10-10T00:44:15.570Z,13.77
2017-10-10T00:46:43.371Z,17.67
2017-10-10T00:49:11.197Z,13.77
2017-10-10T00:51:39.747Z,12.90
2017-10-10T00:54:07.500Z,14.33
2017-10-10T00:56:35.294Z,13.80
2017-10-10T00:59:03.083Z,16.50
2017-10-10T01:01:30.922Z,13.27
2017-10-10T01:03:58.739Z,17.33
2017-10-10T01:06:27.358Z,17.73
2017-10-10T01:08:55.115Z,24.43
2017-10-10T01:11:22.879Z,13.20
2017-10-10T01:13:50.600Z,27.60
2017-10-10T01:16:18.454Z,13.43
2017-10-10T01:18:46.263Z,15.30
2017-10-10T01:21:14.877Z,20.73
2017-10-10T01:23:42.699Z,14.03
2017-10-10T01:26:10.545Z,14.20
2017-10-10T01:28:38.372Z,12.73
2017-10-10T01:31:06.205Z,14.77
2017-10-10T01:33:33.981Z,9.83
2017-10-10T01:36:01.781Z,5.50
2017-10-10T01:38:29.623Z,8.20
2017-10-10T01:40:58.141Z,13.03
2017-10-10T01:43:25.918Z,11.30
2017-10-10T01:45:53.836Z,8.10
2017-10-10T01:48:22.411Z,8.53
2017-10-10T01:50:50.225Z,9.10
2017-10-10T01:53:17.986Z,7.57
2017-10-10T01:55:45.773Z,7.23
2017-10-10T01:58:13.573Z,5.63
2017-10-10T02:00:41.319Z,9.73
2017-10-10T02:03:09.066Z,7.37
2017-10-10T02:05:42.852Z,4.97
2017-10-10T02:08:10.654Z,5.83
2017-10-10T02:10:38.479Z,8.43
2017-10-10T02:13:06.279Z,8.23
2017-10-10T02:15:34.046Z,7.20
2017-10-10T02:18:01.847Z,5.80
2017-10-10T02:20:29.673Z,4.20
2017-10-10T02:22:57.436Z,7.23
2017-10-10T02:25:25.245Z,5.40
2017-10-10T02:27:52.996Z,9.03
2017-10-10T02:30:20.770Z,6.47
2017-10-10T02:32:48.493Z,13.17
2017-10-10T02:35:16.355Z,10.20
2017-10-10T02:37:44.119Z,8.10
2017-10-10T02:40:11.917Z,5.43
2017-10-10T02:42:39.696Z,4.43
2017-10-10T02:45:07.494Z,10.83
2017-10-10T02:47:35.204Z,6.30
2017-10-10T02:50:03.019Z,12.50
2017-10-10T02:52:30.796Z,7.27
2017-10-10T02:54:58.531Z,10.63
2017-10-10T02:57:26.400Z,7.17
2017-10-10T02:59:54.119Z,15.80
2017-10-10T03:02:21.891Z,7.30
2017-10-10T03:04:49.758Z,6.43
2017-10-10T03:07:17.550Z,6.00
2017-10-10T03:09:45.285Z,15.23
2017-10-10T03:12:13.828Z,6.83
2017-10-10T03:14:41.692Z,8.67
2017-10-10T03:17:09.427Z,5.27
2017-10-10T03:19:37.335Z,7.97
2017-10-10T03:22:05.052Z,4.27
2017-10-10T03:24:32.781Z,7.90
2017-10-10T03:27:00.589Z,5.13
2017-10-10T03:29:28.319Z,5.53
2017-10-10T03:31:56.812Z,5.53
2017-10-10T03:34:24.552Z,4.33
2017-10-10T03:36:52.272Z,7.53
2017-10-10T03:39:20.120Z,8.50
2017-10-10T03:41:48.036Z,9.47
2017-10-10T03:44:15.814Z,5.43
2017-10-10T03:46:43.531Z,10.20
2017-10-10T03:49:11.412Z,10.53
2017-10-10T03:51:39.159Z,7.30
2017-10-10T03:54:07.739Z,4.70
2017-10-10T03:56:35.539Z,4.33
2017-10-10T03:59:03.338Z,6.67
2017-10-10T04:01:31.115Z,6.27
2017-10-10T04:03:58.912Z,8.07
2017-10-10T04:06:27.421Z,7.50
2017-10-10T04:08:55.289Z,6.80
2017-10-10T04:11:23.095Z,9.67
2017-10-10T04:13:51.564Z,6.53
2017-10-10T04:16:19.393Z,11.70
2017-10-10T04:18:47.107Z,5.83
2017-10-10T04:21:14.884Z,6.70
2017-10-10T04:23:42.719Z,6.77
2017-10-10T04:26:10.488Z,8.23
2017-10-10T04:28:38.200Z,5.87
2017-10-10T04:31:06.084Z,13.30
2017-10-10T04:33:33.812Z,6.60
2017-10-10T04:36:01.604Z,12.60
2017-10-10T04:38:29.457Z,9.87
2017-10-10T04:40:57.399Z,6.17
2017-10-10T04:43:25.437Z,6.40
2017-10-10T04:45:53.319Z,5.50
2017-10-10T04:48:22.018Z,5.30
2017-10-10T04:50:51.731Z,16.00
2017-10-10T04:53:19.499Z,7.73
2017-10-10T04:55:47.412Z,16.93
2017-10-10T04:58:15.191Z,16.20
2017-10-10T05:00:42.921Z,6.20
2017-10-10T05:03:10.712Z,6.80
2017-10-10T05:05:38.883Z,6.30
2017-10-10T05:08:06.700Z,14.73
2017-10-10T05:10:34.972Z,6.50
2017-10-10T05:13:03.088Z,6.97
2017-10-10T05:15:30.871Z,8.30
2017-10-10T05:17:58.664Z,10.60
2017-10-10T05:20:27.379Z,6.07
2017-10-10T05:22:55.183Z,6.57
2017-10-10T05:25:22.916Z,12.77
2017-10-10T05:27:50.696Z,7.80
2017-10-10T05:30:18.472Z,7.83
2017-10-10T05:32:46.315Z,9.33
2017-10-10T05:35:14.205Z,7.53
2017-10-10T05:37:41.971Z,8.52
2017-10-10T05:40:09.770Z,10.80
2017-10-10T05:42:37.666Z,9.17
2017-10-10T05:45:05.496Z,9.90
2017-10-10T05:47:33.297Z,6.60
2017-10-10T05:50:01.108Z,9.77
2017-10-10T05:52:28.914Z,13.90
2017-10-10T05:54:56.734Z,7.70
2017-10-10T05:57:24.476Z,9.57
2017-10-10T05:59:53.017Z,8.23
2017-10-10T06:02:21.645Z,5.90
2017-10-10T06:04:49.360Z,6.67
2017-10-10T06:07:17.150Z,9.83
2017-10-10T06:09:44.937Z,6.23
2017-10-10T06:12:12.644Z,6.70
2017-10-10T06:14:40.356Z,7.63
2017-10-10T06:17:08.241Z,9.17
2017-10-10T06:19:36.007Z,4.40
2017-10-10T06:22:04.487Z,6.50
2017-10-10T06:24:32.301Z,6.10
2017-10-10T06:27:00.071Z,5.27
2017-10-10T06:29:27.848Z,5.90
2017-10-10T06:31:55.600Z,7.33
2017-10-10T06:34:23.383Z,7.37
2017-10-10T06:36:51.209Z,8.77
2017-10-10T06:39:20.025Z,12.17
2017-10-10T06:41:47.762Z,9.80
2017-10-10T06:44:17.281Z,8.10
2017-10-10T06:46:45.084Z,8.97
2017-10-10T06:49:12.820Z,5.80
2017-10-10T06:51:40.625Z,11.87
2017-10-10T06:54:08.414Z,11.63
2017-10-10T06:56:36.186Z,6.47
2017-10-10T06:59:03.991Z,7.10
2017-10-10T07:01:31.778Z,9.90
2017-10-10T07:04:00.435Z,5.40
2017-10-10T07:06:28.167Z,9.53
2017-10-10T07:08:55.892Z,7.83
2017-10-10T07:11:23.718Z,6.57
2017-10-10T07:13:52.269Z,10.30
2017-10-10T07:16:20.046Z,6.13
2017-10-10T07:18:47.832Z,9.40
2017-10-10T07:21:16.331Z,15.03
2017-10-10T07:23:44.043Z,13.00
2017-10-10T07:26:11.788Z,10.90
2017-10-10T07:28:39.592Z,10.23
2017-10-10T07:31:07.312Z,15.23
2017-10-10T07:33:35.194Z,14.07
2017-10-10T07:36:02.987Z,19.57
2017-10-10T07:38:30.697Z,13.80
2017-10-10T07:40:58.548Z,10.87
2017-10-10T07:43:26.324Z,18.53
2017-10-10T07:45:54.104Z,11.53
2017-10-10T07:48:22.022Z,13.63
2017-10-10T07:50:49.736Z,14.60
2017-10-10T07:53:17.545Z,12.10
2017-10-10T07:55:45.413Z,15.87
2017-10-10T07:58:13.212Z,15.20
2017-10-10T08:00:40.955Z,17.53
2017-10-10T08:03:08.737Z,17.43
2017-10-10T08:05:36.475Z,13.90
2017-10-10T08:08:04.264Z,13.13
2017-10-10T08:10:31.998Z,13.17
2017-10-10T08:12:59.772Z,14.03
2017-10-10T08:15:27.774Z,16.77
2017-10-10T08:17:55.624Z,15.93
2017-10-10T08:20:23.399Z,18.33
2017-10-10T08:22:51.174Z,19.93
2017-10-10T08:25:18.986Z,21.77
2017-10-10T08:27:46.702Z,17.03
2017-10-10T08:30:14.475Z,21.73
2017-10-10T08:32:42.282Z,20.60
2017-10-10T08:35:10.042Z,20.23
2017-10-10T08:37:37.766Z,19.33
2017-10-10T08:40:05.683Z,18.87
2017-10-10T08:42:33.460Z,23.77
2017-10-10T08:45:01.199Z,23.83
2017-10-10T08:47:29.687Z,25.83
2017-10-10T08:49:57.416Z,28.90
2017-10-10T08:52:25.143Z,20.00
2017-10-10T08:54:52.971Z,20.03
2017-10-10T08:57:20.773Z,24.73
2017-10-10T08:59:48.490Z,22.47
2017-10-10T09:02:16.284Z,22.47
2017-10-10T09:04:44.045Z,29.40
2017-10-10T09:07:11.866Z,35.13
2017-10-10T09:09:39.672Z,23.27
2017-10-10T09:12:07.461Z,29.90
2017-10-10T09:14:35.197Z,22.30
2017-10-10T09:17:03.052Z,26.63
2017-10-10T09:19:30.832Z,14.97
2017-10-10T09:21:58.547Z,17.90
2017-10-10T09:24:26.373Z,16.73
2017-10-10T09:26:54.087Z,18.37
2017-10-10T09:29:21.962Z,15.13
2017-10-10T09:31:49.847Z,18.00
2017-10-10T09:34:17.641Z,12.50
2017-10-10T09:36:45.489Z,16.90
2017-10-10T09:39:13.288Z,18.60
2017-10-10T09:41:41.036Z,14.90
2017-10-10T09:44:08.851Z,17.77
2017-10-10T09:46:36.733Z,17.57
2017-10-10T09:49:04.512Z,17.17
2017-10-10T09:51:32.319Z,18.73
2017-10-10T09:54:00.186Z,13.07
2017-10-10T09:56:27.938Z,18.03
2017-10-10T09:58:55.738Z,21.03
2017-10-10T10:01:24.258Z,15.93
2017-10-10T10:03:52.044Z,14.30
2017-10-10T10:06:19.883Z,17.73
2017-10-10T10:08:47.652Z,16.53
2017-10-10T10:11:15.481Z,16.52
2017-10-10T10:13:43.251Z,20.93
2017-10-10T10:16:11.869Z,15.17
2017-10-10T10:18:39.650Z,21.27
2017-10-10T10:21:07.389Z,17.67
2017-10-10T10:23:35.271Z,22.53
2017-10-10T10:26:03.005Z,19.90
2017-10-10T10:28:31.518Z,24.23
2017-10-10T10:30:59.305Z,31.40
2017-10-10T10:33:27.100Z,24.63
2017-10-10T10:35:54.905Z,24.27
2017-10-10T10:38:22.726Z,24.30
2017-10-10T10:40:50.462Z,22.70
2017-10-10T10:43:18.262Z,18.90
2017-10-10T10:45:46.087Z,20.67
2017-10-10T10:48:13.808Z,24.03
2017-10-10T10:50:41.593Z,22.80
2017-10-10T10:53:10.191Z,22.80
2017-10-10T10:55:37.983Z,24.53
2017-10-10T10:58:05.724Z,18.20
2017-10-10T11:00:33.553Z,18.27
2017-10-10T11:03:01.336Z,20.60
2017-10-10T11:05:29.162Z,19.90
2017-10-10T11:07:57.044Z,26.30
2017-10-10T11:10:24.844Z,22.67
2017-10-10T11:12:52.642Z,25.70
2017-10-10T11:15:20.452Z,21.43
2017-10-10T11:17:48.191Z,22.77
2017-10-10T11:20:15.974Z,23.20
2017-10-10T11:22:43.783Z,23.07
2017-10-10T11:25:11.616Z,23.63
2017-10-10T11:27:39.418Z,23.47
2017-10-10T11:30:07.196Z,29.10
2017-10-10T11:32:34.930Z,25.87
2017-10-10T11:35:02.665Z,21.77
2017-10-10T11:37:30.600Z,22.87
2017-10-10T11:39:58.328Z,24.10
2017-10-10T11:42:26.118Z,32.27
2017-10-10T11:44:53.891Z,29.40
2017-10-10T11:47:21.611Z,27.00
2017-10-10T11:49:49.328Z,21.77
2017-10-10T11:52:17.244Z,26.77
2017-10-10T11:54:45.061Z,24.27
2017-10-10T11:57:13.570Z,25.50
2017-10-10T11:59:41.398Z,30.27
2017-10-10T12:02:09.195Z,26.03
2017-10-10T12:04:37.411Z,23.43
2017-10-10T12:07:05.279Z,26.90
2017-10-10T12:09:33.058Z,18.27
2017-10-10T12:12:00.776Z,17.53
2017-10-10T12:14:28.616Z,20.53
2017-10-10T12:16:56.401Z,17.93
2017-10-10T12:19:24.133Z,19.80
2017-10-10T12:21:51.872Z,19.57
2017-10-10T12:24:19.658Z,22.63
2017-10-10T12:26:47.460Z,23.13
2017-10-10T12:29:15.215Z,18.90
2017-10-10T12:31:43.068Z,17.93
2017-10-10T12:34:10.849Z,15.07
2017-10-10T12:36:38.817Z,14.70
2017-10-10T12:39:06.643Z,13.30
2017-10-10T12:41:34.388Z,17.20
2017-10-10T12:44:02.181Z,16.93
2017-10-10T12:46:29.976Z,21.10
2017-10-10T12:48:57.792Z,17.60
2017-10-10T12:51:26.343Z,16.60
2017-10-10T12:53:54.067Z,12.07
2017-10-10T12:56:21.812Z,16.57
2017-10-10T12:58:49.752Z,17.13
2017-10-10T13:01:17.560Z,15.07
2017-10-10T13:03:45.344Z,12.10
2017-10-10T13:06:13.166Z,20.50
2017-10-10T13:08:41.664Z,9.53
2017-10-10T13:11:09.379Z,18.90
2017-10-10T13:13:37.103Z,12.87
2017-10-10T13:16:04.893Z,14.60
2017-10-10T13:18:32.620Z,11.57
2017-10-10T13:21:00.427Z,12.83
2017-10-10T13:23:28.165Z,18.73
2017-10-10T13:25:55.906Z,16.70
2017-10-10T13:28:23.986Z,13.70
2017-10-10T13:30:52.601Z,13.20
2017-10-10T13:33:20.605Z,14.37
2017-10-10T13:35:48.494Z,16.27
2017-10-10T13:38:16.371Z,14.37
2017-10-10T13:40:44.205Z,17.77
2017-10-10T13:43:12.010Z,14.37
2017-10-10T13:45:39.813Z,10.33
2017-10-10T13:48:07.780Z,15.50
2017-10-10T13:50:35.666Z,15.70
2017-10-10T13:53:04.481Z,14.63
2017-10-10T13:55:32.277Z,18.60
2017-10-10T13:58:01.020Z,17.70
2017-10-10T14:00:28.924Z,17.63
2017-10-10T14:02:59.912Z,10.73
2017-10-10T14:05:27.838Z,21.27
2017-10-10T14:07:55.616Z,13.47
2017-10-10T14:10:23.381Z,13.73
2017-10-10T14:12:51.325Z,12.93
2017-10-10T14:15:21.186Z,10.03
2017-10-10T14:17:49.114Z,16.73
2017-10-10T14:20:16.949Z,11.73
2017-10-10T14:22:44.736Z,13.37
2017-10-10T14:25:12.758Z,18.13
2017-10-10T14:27:40.509Z,12.60
2017-10-10T14:30:08.265Z,15.50
2017-10-10T14:32:36.018Z,11.63
2017-10-10T14:35:03.802Z,7.80
2017-10-10T14:37:31.693Z,8.73
2017-10-10T14:39:59.590Z,11.00
2017-10-10T14:42:27.421Z,10.13
2017-10-10T14:44:55.320Z,9.07
2017-10-10T14:47:57.902Z,10.83
2017-10-10T14:50:38.148Z,12.37
2017-10-10T14:53:08.091Z,15.23
2017-10-10T14:56:17.932Z,10.20
2017-10-10T14:58:45.704Z,14.40
2017-10-10T15:01:13.433Z,11.60
2017-10-10T15:03:41.173Z,11.30
2017-10-10T15:06:08.992Z,12.73
2017-10-10T15:08:37.504Z,19.10
2017-10-10T15:11:05.351Z,11.20
2017-10-10T15:13:33.127Z,10.60
2017-10-10T15:16:00.841Z,12.03
2017-10-10T15:18:28.662Z,8.60
2017-10-10T15:20:56.434Z,9.57
2017-10-10T15:23:24.207Z,7.30
2017-10-10T15:25:52.012Z,9.40
2017-10-10T15:28:19.758Z,10.87
2017-10-10T15:30:47.558Z,10.53
2017-10-10T15:33:15.466Z,12.23
2017-10-10T15:35:43.196Z,9.10
2017-10-10T15:38:10.913Z,9.20
2017-10-10T15:40:38.730Z,11.50
2017-10-10T15:43:06.451Z,13.50
2017-10-10T15:45:34.192Z,10.03
2017-10-10T15:48:01.965Z,11.43
2017-10-10T15:50:30.076Z,11.00
2017-10-10T15:52:57.793Z,8.57
2017-10-10T15:55:26.389Z,12.47
2017-10-10T15:57:54.156Z,12.97
2017-10-10T16:00:21.946Z,11.43
2017-10-10T16:02:49.842Z,13.80
2017-10-10T16:05:17.635Z,8.63
2017-10-10T16:07:45.414Z,10.43
2017-10-10T16:10:13.991Z,8.97
2017-10-10T16:12:42.526Z,8.60
2017-10-10T16:15:10.293Z,8.93
2017-10-10T16:17:38.078Z,6.77
2017-10-10T16:20:06.562Z,11.27
2017-10-10T16:22:34.436Z,11.97
2017-10-10T16:25:02.215Z,12.60
2017-10-10T16:27:29.953Z,8.60
2017-10-10T16:29:57.773Z,9.60
2017-10-10T16:32:25.616Z,10.70
2017-10-10T16:34:55.262Z,9.00
2017-10-10T16:37:23.019Z,11.40
2017-10-10T16:39:50.850Z,10.30
2017-10-10T16:42:18.604Z,12.67
2017-10-10T16:44:46.397Z,13.57
2017-10-10T16:47:14.123Z,9.97
2017-10-10T16:49:41.928Z,11.77
2017-10-10T16:52:09.666Z,10.30
2017-10-10T16:54:40.138Z,17.97
2017-10-10T16:57:09.343Z,18.10
2017-10-10T16:59:37.552Z,11.90
2017-10-10T17:02:05.304Z,9.67
2017-10-10T17:04:33.089Z,14.40
2017-10-10T17:07:00.923Z,10.57
2017-10-10T17:09:31.825Z,17.83
2017-10-10T17:11:59.824Z,14.10
2017-10-10T17:14:28.390Z,15.60
2017-10-10T17:16:56.271Z,17.53
2017-10-10T17:19:24.064Z,21.20
2017-10-10T17:21:52.640Z,21.43
2017-10-10T17:24:20.528Z,18.80
2017-10-10T17:26:48.248Z,15.53
2017-10-10T17:29:16.016Z,18.30
2017-10-10T17:31:43.727Z,12.23
2017-10-10T17:34:11.533Z,14.63
2017-10-10T17:36:39.319Z,19.67
2017-10-10T17:39:07.201Z,17.10
2017-10-10T17:41:34.976Z,14.00
2017-10-10T17:44:02.748Z,12.03
2017-10-10T17:46:30.493Z,17.70
2017-10-10T17:48:58.235Z,13.37
2017-10-10T17:51:26.035Z,16.53
2017-10-10T17:53:53.764Z,19.43
2017-10-10T17:56:21.497Z,23.00
2017-10-10T17:58:49.282Z,14.70
2017-10-10T18:01:17.137Z,17.53
2017-10-10T18:03:44.912Z,16.47
2017-10-10T18:06:12.694Z,18.73
2017-10-10T18:08:40.570Z,14.13
2017-10-10T18:11:08.307Z,15.83
2017-10-10T18:13:36.033Z,15.17
2017-10-10T18:16:03.765Z,14.93
2017-10-10T18:18:31.498Z,16.70
2017-10-10T18:20:59.281Z,18.80
2017-10-10T18:23:27.019Z,18.53
2017-10-10T18:25:54.819Z,17.33
2017-10-10T18:28:23.368Z,22.30
2017-10-10T18:30:51.288Z,20.10
2017-10-10T18:33:19.089Z,18.70
2017-10-10T18:35:46.980Z,15.83
2017-10-10T18:38:14.856Z,17.23
2017-10-10T18:40:42.611Z,31.60
2017-10-10T18:43:10.434Z,18.13
2017-10-10T18:45:38.284Z,19.57
2017-10-10T18:48:06.021Z,18.80
2017-10-10T18:50:33.794Z,29.83
2017-10-10T18:53:01.596Z,22.73
2017-10-10T18:55:29.427Z,17.60
2017-10-10T18:57:57.244Z,23.17
2017-10-10T19:00:25.965Z,22.87
2017-10-10T19:02:53.813Z,21.93
2017-10-10T19:05:21.701Z,19.77
2017-10-10T19:07:50.278Z,18.70
2017-10-10T19:10:18.935Z,16.77
2017-10-10T19:12:46.748Z,19.43
2017-10-10T19:15:14.575Z,19.03
2017-10-10T19:17:42.337Z,18.33
2017-10-10T19:20:10.220Z,19.87
2017-10-10T19:22:38.093Z,26.67
2017-10-10T19:25:05.944Z,20.07
2017-10-10T19:30:06.415Z,28.33
2017-10-10T19:32:34.834Z,23.60
2017-10-10T19:35:03.242Z,22.37
2017-10-10T19:37:31.002Z,15.73
2017-10-10T19:39:58.951Z,20.80
2017-10-10T19:42:26.743Z,22.40
2017-10-10T19:44:54.562Z,17.43
2017-10-10T19:47:22.637Z,29.67
2017-10-10T19:49:50.451Z,21.00
2017-10-10T19:52:18.257Z,18.70
2017-10-10T19:54:46.092Z,16.70
2017-10-10T19:57:13.931Z,18.90
2017-10-10T19:59:41.795Z,23.70
2017-10-10T20:02:10.441Z,18.57
2017-10-10T20:04:38.201Z,20.67
2017-10-10T20:07:05.991Z,18.33
2017-10-10T20:09:33.725Z,20.47
2017-10-10T20:12:01.467Z,20.47
2017-10-10T20:14:29.194Z,20.33
2017-10-10T20:16:56.957Z,22.80
2017-10-10T20:19:24.714Z,18.70
2017-10-10T20:21:52.515Z,21.13
2017-10-10T20:24:20.333Z,19.30
2017-10-10T20:26:48.116Z,20.10
2017-10-10T20:29:15.912Z,20.73
2017-10-10T20:31:45.574Z,24.73
2017-10-10T20:34:13.373Z,18.87
2017-10-10T20:36:41.155Z,21.30
2017-10-10T20:39:08.966Z,16.13
2017-10-10T20:41:36.762Z,16.63
2017-10-10T20:44:04.678Z,18.73
2017-10-10T20:46:32.484Z,21.13
2017-10-10T20:49:00.290Z,21.67
2017-10-10T20:51:29.051Z,20.37
2017-10-10T20:53:56.951Z,19.73
2017-10-10T20:56:24.752Z,23.00
2017-10-10T20:58:52.482Z,21.13
2017-10-10T21:01:21.812Z,22.97
2017-10-10T21:03:49.682Z,27.63
2017-10-10T21:06:17.525Z,27.53
2017-10-10T21:08:53.890Z,22.97
2017-10-10T21:11:21.906Z,20.93
2017-10-10T21:13:49.879Z,20.43
2017-10-10T21:16:21.084Z,19.70
2017-10-10T21:18:49.583Z,31.83
2017-10-10T21:21:17.476Z,23.23
2017-10-10T21:23:45.287Z,20.90
2017-10-10T21:26:13.076Z,18.93
2017-10-10T21:28:42.596Z,22.60
2017-10-10T21:31:10.402Z,23.83
2017-10-10T21:33:39.427Z,18.07
2017-10-10T21:36:08.349Z,23.00
2017-10-10T21:38:36.979Z,30.47
2017-10-10T21:41:05.688Z,18.87
2017-10-10T21:43:33.558Z,20.03
2017-10-10T21:46:01.351Z,22.40
2017-10-10T21:48:31.174Z,20.87
2017-10-10T21:50:59.017Z,24.03
2017-10-10T21:53:27.006Z,18.50
2017-10-10T21:55:54.921Z,18.67
2017-10-10T21:58:22.709Z,19.30
2017-10-10T22:00:50.544Z,21.27
2017-10-10T22:03:19.490Z,20.83
2017-10-10T22:05:47.227Z,19.63
2017-10-10T22:08:15.031Z,23.33
2017-10-10T22:10:43.089Z,25.03
2017-10-10T22:13:10.879Z,18.23
2017-10-10T22:15:38.660Z,21.33
2017-10-10T22:18:07.174Z,19.53
2017-10-10T22:20:34.940Z,21.93
2017-10-10T22:23:02.684Z,18.87
2017-10-10T22:25:30.482Z,18.50
2017-10-10T22:27:58.255Z,18.50
2017-10-10T22:30:26.025Z,17.87
2017-10-10T22:32:53.768Z,15.50
2017-10-10T22:35:21.553Z,16.27
2017-10-10T22:37:49.361Z,17.73
2017-10-10T22:40:17.097Z,20.10
2017-10-10T22:42:44.876Z,17.50
2017-10-10T22:45:12.630Z,16.67
2017-10-10T22:47:40.354Z,17.57
2017-10-10T22:50:08.141Z,23.53
2017-10-10T22:52:35.867Z,25.47
2017-10-10T22:55:03.777Z,25.37
2017-10-10T22:57:31.519Z,21.40
2017-10-10T22:59:59.287Z,28.20
2017-10-10T23:02:27.104Z,19.30
2017-10-10T23:04:54.923Z,24.17
2017-10-10T23:07:22.717Z,25.70
2017-10-10T23:09:50.524Z,21.10
2017-10-10T23:12:18.304Z,19.90
2017-10-10T23:14:46.083Z,23.33
2017-10-10T23:17:14.003Z,23.77
2017-10-10T23:19:41.740Z,30.43
2017-10-10T23:22:09.561Z,24.93
2017-10-10T23:24:37.376Z,27.70
2017-10-10T23:27:05.183Z,29.00
2017-10-10T23:29:33.924Z,24.67
2017-10-10T23:32:01.823Z,26.40
2017-10-10T23:34:29.630Z,25.67
2017-10-10T23:36:57.368Z,21.90
2017-10-10T23:39:25.268Z,19.97
2017-10-10T23:41:53.013Z,22.97
2017-10-10T23:44:20.743Z,23.83
2017-10-10T23:46:48.648Z,21.53
2017-10-10T23:49:16.376Z,20.80
2017-10-10T23:51:44.124Z,18.83
2017-10-10T23:54:11.931Z,17.37
2017-10-10T23:56:39.716Z,20.03
2017-10-10T23:59:07.461Z,16.80
